createdAt,value
2022-09-15T00:01:51.793Z,100778.91
2022-09-15T00:04:18.357Z,100770.31
2022-09-15T00:06:44.960Z,100772.91
2022-09-15T00:09:11.453Z,100763.06
2022-09-15T00:11:39.221Z,100777.69
2022-09-15T00:14:08.242Z,100770.94
2022-09-15T00:16:34.771Z,100779.94
2022-09-15T00:19:01.927Z,100777.97
2022-09-15T00:21:31.830Z,100788.09
2022-09-15T00:24:00.506Z,100779.38
2022-09-15T00:26:29.440Z,100779.09
2022-09-15T00:28:57.273Z,100770.63
2022-09-15T00:31:25.315Z,100777.53
2022-09-15T00:33:56.759Z,100767.28
2022-09-15T00:36:24.891Z,100777.09
2022-09-15T00:38:51.635Z,100776.56
2022-09-15T00:41:20.411Z,100776.72
2022-09-15T00:44:05.931Z,100768.56
2022-09-15T00:46:39.718Z,100785.44
2022-09-15T00:49:29.513Z,100772.22
2022-09-15T00:52:07.297Z,100778.41
2022-09-15T00:54:48.994Z,100772.66
2022-09-15T00:57:29.872Z,100776.47
2022-09-15T00:59:59.618Z,100779.13
2022-09-15T01:02:29.521Z,100771.81
2022-09-15T01:04:58.568Z,100769.16
2022-09-15T01:07:46.435Z,100776.88
2022-09-15T01:10:34.771Z,100778.53
2022-09-15T01:13:04.457Z,100776.88
2022-09-15T01:15:54.962Z,100783.88
2022-09-15T01:18:44.621Z,100769.97
2022-09-15T01:21:18.062Z,100761.28
2022-09-15T01:24:11.937Z,100781.09
2022-09-15T01:26:56.663Z,100783.91
2022-09-15T01:29:47.775Z,100789.84
2022-09-15T01:33:07.843Z,100791.81
2022-09-15T01:35:56.256Z,100781.69
2022-09-15T01:38:37.952Z,100787.03
2022-09-15T01:41:18.699Z,100781.97
2022-09-15T01:43:53.734Z,100791.28
2022-09-15T01:46:24.012Z,100785.78
2022-09-15T01:48:53.809Z,100787.06
2022-09-15T01:51:21.649Z,100780.03
2022-09-15T01:53:49.758Z,100765.44
2022-09-15T01:56:16.398Z,100778.09
2022-09-15T01:58:42.951Z,100780.91
2022-09-15T02:01:23.564Z,100769.41
2022-09-15T02:03:55.661Z,100783.16
2022-09-15T02:06:37.193Z,100791.63
2022-09-15T02:09:17.554Z,100788.25
2022-09-15T02:12:08.084Z,100784.44
2022-09-15T02:14:55.942Z,100785.16
2022-09-15T02:17:24.193Z,100788.13
2022-09-15T02:20:18.432Z,100792.19
2022-09-15T02:22:52.254Z,100780.66
2022-09-15T02:25:24.639Z,100776.72
2022-09-15T02:27:55.193Z,100756.78
2022-09-15T02:30:22.026Z,100790.34
2022-09-15T02:32:56.748Z,100779.81
2022-09-15T02:35:26.075Z,100787.00
2022-09-15T02:37:53.917Z,100755.66
2022-09-15T02:40:21.088Z,100781.38
2022-09-15T02:42:56.688Z,100778.16
2022-09-15T02:45:25.523Z,100774.47
2022-09-15T02:47:52.574Z,100762.69
2022-09-15T02:50:20.497Z,100788.25
2022-09-15T02:52:47.431Z,100786.13
2022-09-15T02:55:13.875Z,100783.19
2022-09-15T02:57:40.339Z,100791.91
2022-09-15T03:00:13.318Z,100789.50
2022-09-15T03:02:41.103Z,100792.47
2022-09-15T03:05:08.981Z,100778.97
2022-09-15T03:07:37.705Z,100791.63
2022-09-15T03:10:06.288Z,100793.31
2022-09-15T03:12:41.502Z,100796.13
2022-09-15T03:15:10.169Z,100796.25
2022-09-15T03:17:38.519Z,100798.50
2022-09-15T03:20:06.891Z,100804.56
2022-09-15T03:22:33.809Z,100796.41
2022-09-15T03:25:01.177Z,100806.78
2022-09-15T03:27:27.838Z,100807.63
2022-09-15T03:29:54.287Z,100805.41
2022-09-15T03:32:20.738Z,100801.75
2022-09-15T03:34:47.266Z,100804.00
2022-09-15T03:37:14.062Z,100799.78
2022-09-15T03:39:40.514Z,100784.75
2022-09-15T03:42:08.374Z,100805.53
2022-09-15T03:44:35.779Z,100811.59
2022-09-15T03:47:03.400Z,100776.88
2022-09-15T03:49:30.061Z,100801.31
2022-09-15T03:51:56.948Z,100800.34
2022-09-15T03:54:23.386Z,100800.34
2022-09-15T03:56:51.932Z,100798.50
2022-09-15T03:59:19.390Z,100805.69
2022-09-15T04:01:46.634Z,100803.69
2022-09-15T04:04:14.204Z,100815.81
2022-09-15T04:06:41.232Z,100814.97
2022-09-15T04:09:07.922Z,100816.75
2022-09-15T04:11:34.506Z,100802.44
2022-09-15T04:14:01.157Z,100787.41
2022-09-15T04:16:27.997Z,100815.25
2022-09-15T04:18:55.486Z,100813.97
2022-09-15T04:21:24.969Z,100804.84
2022-09-15T04:23:51.792Z,100820.16
2022-09-15T04:26:22.581Z,100833.09
2022-09-15T04:28:49.177Z,100813.69
2022-09-15T04:31:16.851Z,100810.03
2022-09-15T04:33:45.162Z,100791.63
2022-09-15T04:36:17.501Z,100807.66
2022-09-15T04:38:44.579Z,100803.28
2022-09-15T04:41:11.930Z,100811.88
2022-09-15T04:43:38.559Z,100808.19
2022-09-15T04:46:05.380Z,100810.47
2022-09-15T04:48:32.604Z,100798.94
2022-09-15T04:51:04.614Z,100798.66
2022-09-15T04:53:31.581Z,100796.81
2022-09-15T04:56:08.670Z,100798.22
2022-09-15T04:58:45.109Z,100798.66
2022-09-15T05:01:20.784Z,100805.69
2022-09-15T05:03:47.764Z,100803.72
2022-09-15T05:06:17.324Z,100808.50
2022-09-15T05:08:46.870Z,100810.31
2022-09-15T05:11:14.102Z,100807.94
2022-09-15T05:13:40.779Z,100799.09
2022-09-15T05:16:12.043Z,100801.75
2022-09-15T05:18:40.146Z,100813.53
2022-09-15T05:21:08.559Z,100811.44
2022-09-15T05:23:36.250Z,100808.78
2022-09-15T05:26:06.613Z,100804.13
2022-09-15T05:28:34.924Z,100801.06
2022-09-15T05:31:01.874Z,100811.31
2022-09-15T05:33:28.394Z,100817.50
2022-09-15T05:35:56.854Z,100817.22
2022-09-15T05:38:25.035Z,100808.50
2022-09-15T05:40:51.852Z,100810.88
2022-09-15T05:43:18.731Z,100824.81
2022-09-15T05:45:54.436Z,100816.50
2022-09-15T05:48:21.255Z,100816.38
2022-09-15T05:50:52.371Z,100830.44
2022-09-15T05:53:19.872Z,100817.34
2022-09-15T05:55:47.061Z,100840.00
2022-09-15T05:58:14.090Z,100840.66
2022-09-15T06:00:41.787Z,100841.38
2022-09-15T06:03:14.605Z,100841.38
2022-09-15T06:05:41.530Z,100829.72
2022-09-15T06:08:08.305Z,100829.03
2022-09-15T06:10:34.938Z,100830.41
2022-09-15T06:13:01.382Z,100838.84
2022-09-15T06:15:28.003Z,100843.63
2022-09-15T06:17:54.584Z,100836.88
2022-09-15T06:20:21.420Z,100832.50
2022-09-15T06:22:48.224Z,100837.41
2022-09-15T06:25:15.310Z,100835.28
2022-09-15T06:27:42.170Z,100841.63
2022-09-15T06:30:10.286Z,100849.78
2022-09-15T06:32:36.873Z,100844.72
2022-09-15T06:35:07.198Z,100848.94
2022-09-15T06:37:34.758Z,100858.19
2022-09-15T06:40:02.334Z,100859.34
2022-09-15T06:42:28.805Z,100870.56
2022-09-15T06:44:55.504Z,100846.81
2022-09-15T06:47:21.957Z,100863.53
2022-09-15T06:49:48.591Z,100876.75
2022-09-15T06:52:15.157Z,100867.34
2022-09-15T06:54:41.625Z,100879.41
2022-09-15T06:57:08.100Z,100879.88
2022-09-15T06:59:34.602Z,100872.53
2022-09-15T07:02:04.855Z,100869.72
2022-09-15T07:04:33.460Z,100879.84
2022-09-15T07:07:00.088Z,100879.84
2022-09-15T07:09:26.585Z,100890.41
2022-09-15T07:11:53.219Z,100885.47
2022-09-15T07:14:19.789Z,100895.16
2022-09-15T07:16:46.340Z,100883.03
2022-09-15T07:19:13.044Z,100873.25
2022-09-15T07:21:39.619Z,100892.13
2022-09-15T07:24:09.317Z,100895.59
2022-09-15T07:26:35.879Z,100899.81
2022-09-15T07:29:06.090Z,100908.28
2022-09-15T07:31:34.565Z,100911.88
2022-09-15T07:34:02.163Z,100908.09
2022-09-15T07:36:29.319Z,100910.97
2022-09-15T07:38:55.877Z,100915.44
2022-09-15T07:41:25.078Z,100917.56
2022-09-15T07:43:54.007Z,100921.59
2022-09-15T07:46:22.096Z,100915.59
2022-09-15T07:48:50.711Z,100914.88
2022-09-15T07:51:17.557Z,100932.44
2022-09-15T07:53:46.226Z,100930.19
2022-09-15T07:56:13.414Z,100941.75
2022-09-15T07:58:40.553Z,100947.63
2022-09-15T08:01:11.187Z,100944.50
2022-09-15T08:03:42.941Z,100945.22
2022-09-15T08:06:10.477Z,100951.84
2022-09-15T08:08:39.010Z,100942.56
2022-09-15T08:11:09.841Z,100944.63
2022-09-15T08:13:36.798Z,100950.06
2022-09-15T08:16:15.288Z,100956.41
2022-09-15T08:18:43.432Z,100966.47
2022-09-15T08:21:15.794Z,100967.75
2022-09-15T08:23:42.650Z,100965.69
2022-09-15T08:26:14.195Z,100967.38
2022-09-15T08:28:41.101Z,100960.03
2022-09-15T08:31:09.460Z,100976.06
2022-09-15T08:33:36.581Z,100969.19
2022-09-15T08:36:06.225Z,100973.41
2022-09-15T08:38:33.458Z,100978.06
2022-09-15T08:41:07.550Z,100969.72
2022-09-15T08:43:53.678Z,100978.59
2022-09-15T08:46:32.220Z,100976.09
2022-09-15T08:49:50.031Z,100984.59
2022-09-15T08:52:23.242Z,100988.50
2022-09-15T08:54:55.367Z,100985.78
2022-09-15T08:57:25.756Z,100979.47
2022-09-15T08:59:54.516Z,100985.16
2022-09-15T09:02:33.141Z,100990.69
2022-09-15T09:05:29.487Z,100983.19
2022-09-15T09:08:16.681Z,101000.72
2022-09-15T09:10:51.646Z,101006.53
2022-09-15T09:13:49.177Z,101006.53
2022-09-15T09:16:43.782Z,101011.00
2022-09-15T09:19:45.498Z,101013.91
2022-09-15T09:22:18.004Z,101006.75
2022-09-15T09:24:48.385Z,101006.41
2022-09-15T09:27:20.741Z,101001.97
2022-09-15T09:29:49.970Z,101014.41
2022-09-15T09:32:21.771Z,101001.22
2022-09-15T09:35:06.358Z,100995.72
2022-09-15T09:37:33.600Z,101000.41
2022-09-15T09:40:00.628Z,100999.72
2022-09-15T09:42:30.905Z,101003.47
2022-09-15T09:44:57.533Z,100996.63
2022-09-15T09:47:30.199Z,101008.84
2022-09-15T09:49:56.717Z,100998.25
2022-09-15T09:52:34.313Z,100993.38
2022-09-15T09:55:26.957Z,100999.13
2022-09-15T09:57:54.317Z,101006.53
2022-09-15T10:00:37.496Z,101005.31
2022-09-15T10:03:22.986Z,101001.34
2022-09-15T10:06:04.101Z,101007.09
2022-09-15T10:08:32.889Z,101009.44
2022-09-15T10:11:10.343Z,100999.13
2022-09-15T10:13:51.029Z,101009.44
2022-09-15T10:16:18.862Z,101011.66
2022-09-15T10:18:50.955Z,100969.56
2022-09-15T10:21:24.704Z,100998.09
2022-09-15T10:23:51.227Z,100984.34
2022-09-15T10:26:30.034Z,101010.78
2022-09-15T10:29:15.248Z,101003.13
2022-09-15T10:31:42.897Z,101006.19
2022-09-15T10:34:25.572Z,100997.09
2022-09-15T10:36:59.322Z,100986.53
2022-09-15T10:39:44.619Z,100991.28
2022-09-15T10:42:14.357Z,101001.34
2022-09-15T10:45:09.359Z,100990.59
2022-09-15T10:48:08.181Z,100973.00
2022-09-15T10:50:47.702Z,100981.56
2022-09-15T10:53:23.427Z,100976.88
2022-09-15T10:56:25.867Z,100984.75
2022-09-15T10:59:04.980Z,100979.97
2022-09-15T11:01:46.473Z,100971.78
2022-09-15T11:04:26.153Z,100972.13
2022-09-15T11:07:04.885Z,100984.91
2022-09-15T11:09:40.380Z,100983.41
2022-09-15T11:12:41.976Z,100987.97
2022-09-15T11:15:14.452Z,100990.50
2022-09-15T11:17:43.963Z,100981.78
2022-09-15T11:20:13.443Z,100985.50
2022-09-15T11:22:49.813Z,100979.63
2022-09-15T11:25:24.054Z,100974.94
2022-09-15T11:28:06.869Z,100985.00
2022-09-15T11:30:40.416Z,100978.97
2022-09-15T11:33:28.110Z,100971.72
2022-09-15T11:36:09.338Z,100976.94
2022-09-15T11:38:43.126Z,100977.63
2022-09-15T11:41:26.545Z,100981.63
2022-09-15T11:44:20.767Z,100969.34
2022-09-15T11:46:51.673Z,100966.00
2022-09-15T11:49:25.971Z,100964.84
2022-09-15T11:51:59.295Z,100962.28
2022-09-15T11:54:38.059Z,100960.00
2022-09-15T11:57:05.529Z,100957.13
2022-09-15T11:59:43.739Z,100954.28
2022-09-15T12:02:38.282Z,100965.25
2022-09-15T12:05:30.595Z,100959.78
2022-09-15T12:08:06.702Z,100953.72
2022-09-15T12:10:48.349Z,100977.53
2022-09-15T12:13:26.664Z,100979.53
2022-09-15T12:15:55.460Z,100974.13
2022-09-15T12:18:54.865Z,100976.84
2022-09-15T12:21:37.092Z,100967.16
2022-09-15T12:24:38.059Z,100962.81
2022-09-15T12:27:05.455Z,100958.59
2022-09-15T12:29:42.038Z,100960.63
2022-09-15T12:32:29.450Z,100960.56
2022-09-15T12:35:20.213Z,100959.69
2022-09-15T12:37:48.152Z,100954.13
2022-09-15T12:40:33.669Z,100948.31
2022-09-15T12:43:23.129Z,100948.72
2022-09-15T12:46:01.874Z,100940.38
2022-09-15T12:48:31.946Z,100944.91
2022-09-15T12:51:03.651Z,100963.72
2022-09-15T12:53:38.159Z,100968.81
2022-09-15T12:56:11.592Z,100945.34
2022-09-15T12:58:42.067Z,100958.91
2022-09-15T13:01:18.283Z,100970.16
2022-09-15T13:03:51.375Z,100970.56
2022-09-15T13:06:35.156Z,100967.50
2022-09-15T13:09:01.663Z,100975.88
2022-09-15T13:11:34.814Z,100984.84
2022-09-15T13:14:11.180Z,100998.28
2022-09-15T13:16:40.827Z,101005.41
2022-09-15T13:19:12.441Z,100996.06
2022-09-15T13:21:42.459Z,101010.16
2022-09-15T13:24:20.107Z,101012.09
2022-09-15T13:26:52.895Z,101000.19
2022-09-15T13:29:20.189Z,101006.19
2022-09-15T13:31:59.390Z,101004.25
2022-09-15T13:38:20.066Z,101007.13
2022-09-15T13:41:02.263Z,101003.94
2022-09-15T13:43:59.890Z,101008.94
2022-09-15T13:46:38.355Z,101006.72
2022-09-15T13:49:22.394Z,100990.88
2022-09-15T13:52:22.517Z,100992.13
2022-09-15T13:55:17.873Z,101003.72
2022-09-15T14:00:44.342Z,100994.00
2022-09-15T14:03:16.264Z,100994.16
2022-09-15T14:05:43.437Z,100989.59
2022-09-15T14:08:15.937Z,100999.38
2022-09-15T14:11:08.488Z,100998.69
2022-09-15T14:13:38.178Z,100988.78
2022-09-15T14:16:19.405Z,100985.63
2022-09-15T14:18:47.086Z,100986.03
2022-09-15T14:21:28.299Z,100991.25
2022-09-15T14:23:58.047Z,100993.09
2022-09-15T14:26:28.236Z,100989.00
2022-09-15T14:29:00.089Z,100998.03
2022-09-15T14:31:29.303Z,101006.72
2022-09-15T14:33:56.291Z,101011.56
2022-09-15T14:36:26.506Z,101011.47
2022-09-15T14:39:25.473Z,101018.84
2022-09-15T14:41:52.079Z,101019.78
2022-09-15T14:47:28.206Z,101019.66
2022-09-15T14:50:15.915Z,101021.25
2022-09-15T14:52:49.173Z,101019.53
2022-09-15T14:55:41.094Z,101011.78
2022-09-15T14:58:21.826Z,101004.59
2022-09-15T15:01:15.671Z,101012.00
2022-09-15T15:03:55.679Z,101006.19
2022-09-15T15:06:35.580Z,101003.84
2022-09-15T15:09:25.372Z,101011.91
2022-09-15T15:11:59.045Z,101009.91
2022-09-15T15:14:25.706Z,101000.63
2022-09-15T15:17:08.201Z,100997.09
2022-09-15T15:19:40.591Z,100998.09
2022-09-15T15:22:23.202Z,100997.13
2022-09-15T15:24:52.517Z,101004.09
2022-09-15T15:27:34.602Z,101006.75
2022-09-15T15:30:32.395Z,101007.09
2022-09-15T15:33:27.561Z,101004.38
2022-09-15T15:36:07.674Z,101007.38
2022-09-15T15:38:37.020Z,100999.41
2022-09-15T15:41:06.534Z,101015.34
2022-09-15T15:43:36.614Z,101006.31
2022-09-15T15:46:05.753Z,101022.41
2022-09-15T15:48:38.387Z,101019.94
2022-09-15T15:51:07.492Z,101012.38
2022-09-15T15:53:34.427Z,101005.69
2022-09-15T15:56:01.167Z,101012.94
2022-09-15T15:58:28.047Z,101022.69
2022-09-15T16:00:56.747Z,100999.25
2022-09-15T16:03:24.720Z,101020.31
2022-09-15T16:05:58.034Z,101014.41
2022-09-15T16:08:33.267Z,101015.53
2022-09-15T16:11:03.565Z,101009.00
2022-09-15T16:13:30.437Z,101020.72
2022-09-15T16:15:58.849Z,101016.31
2022-09-15T16:18:25.933Z,101035.28
2022-09-15T16:20:53.213Z,101027.41
2022-09-15T16:23:22.721Z,101043.06
2022-09-15T16:26:04.243Z,101035.81
2022-09-15T16:28:31.711Z,101030.25
2022-09-15T16:30:59.199Z,101019.47
2022-09-15T16:33:26.601Z,101035.78
2022-09-15T16:36:06.889Z,101035.47
2022-09-15T16:38:36.024Z,101020.31
2022-09-15T16:41:03.680Z,101037.34
2022-09-15T16:43:30.609Z,101039.06
2022-09-15T16:45:57.302Z,101038.94
2022-09-15T16:48:23.828Z,101044.97
2022-09-15T16:51:16.084Z,101053.06
2022-09-15T16:53:40.867Z,101049.47
2022-09-15T16:56:11.271Z,101044.50
2022-09-15T16:58:38.069Z,101065.41
2022-09-15T17:01:05.008Z,101055.38
2022-09-15T17:03:31.634Z,101054.81
2022-09-15T17:06:00.311Z,101059.31
2022-09-15T17:08:29.624Z,101058.59
2022-09-15T17:10:57.696Z,101055.34
2022-09-15T17:13:29.322Z,101054.38
2022-09-15T17:15:58.111Z,101053.00
2022-09-15T17:18:25.769Z,101044.31
2022-09-15T17:20:52.526Z,101046.72
2022-09-15T17:23:31.019Z,101044.78
2022-09-15T17:26:03.230Z,101043.63
2022-09-15T17:28:33.460Z,101046.31
2022-09-15T17:31:02.745Z,101037.06
2022-09-15T17:33:30.998Z,101058.59
2022-09-15T17:35:58.231Z,101049.72
2022-09-15T17:38:25.549Z,101039.72
2022-09-15T17:40:52.981Z,101043.22
2022-09-15T17:43:22.124Z,101050.41
2022-09-15T17:45:49.869Z,101057.03
2022-09-15T17:48:16.774Z,101055.75
2022-09-15T17:50:43.843Z,101057.59
2022-09-15T17:53:13.742Z,101050.66
2022-09-15T17:55:40.504Z,101049.72
2022-09-15T17:58:07.587Z,101048.75
2022-09-15T18:00:37.083Z,101056.53
2022-09-15T18:03:11.052Z,101063.84
2022-09-15T18:05:37.755Z,101054.03
2022-09-15T18:08:05.524Z,101056.84
2022-09-15T18:10:34.914Z,101057.44
2022-09-15T18:13:02.428Z,101074.78
2022-09-15T18:15:32.674Z,101070.69
2022-09-15T18:18:04.029Z,101080.25
2022-09-15T18:20:32.791Z,101085.06
2022-09-15T18:23:00.169Z,101080.25
2022-09-15T18:25:33.620Z,101084.22
2022-09-15T18:28:02.461Z,101082.94
2022-09-15T18:30:32.186Z,101091.53
2022-09-15T18:32:59.538Z,101095.47
2022-09-15T18:35:26.819Z,101096.03
2022-09-15T18:37:59.186Z,101094.63
2022-09-15T18:40:27.194Z,101110.69
2022-09-15T18:42:54.124Z,101115.03
2022-09-15T18:45:20.939Z,101109.75
2022-09-15T18:47:49.927Z,101144.72
2022-09-15T18:50:18.762Z,101155.44
2022-09-15T18:52:45.291Z,101128.63
2022-09-15T18:55:15.328Z,101135.38
2022-09-15T18:57:42.632Z,101136.88
2022-09-15T19:00:24.073Z,101142.34
2022-09-15T19:02:58.139Z,101133.91
2022-09-15T19:05:25.585Z,101137.28
2022-09-15T19:07:52.234Z,101136.63
2022-09-15T19:10:18.789Z,101129.25
2022-09-15T19:12:45.498Z,101121.94
2022-09-15T19:15:13.672Z,101124.03
2022-09-15T19:17:42.005Z,101130.22
2022-09-15T19:20:10.838Z,101126.19
2022-09-15T19:22:37.819Z,101120.84
2022-09-15T19:25:05.131Z,101086.34
2022-09-15T19:27:32.245Z,101118.31
2022-09-15T19:29:58.849Z,101119.16
2022-09-15T19:32:25.686Z,101135.06
2022-09-15T19:34:52.796Z,101131.03
2022-09-15T19:37:21.185Z,101053.75
2022-09-15T19:39:48.532Z,101068.31
2022-09-15T19:44:42.580Z,101094.81
2022-09-15T19:47:09.419Z,101123.47
2022-09-15T19:49:36.110Z,101125.59
2022-09-15T19:52:02.785Z,101123.19
2022-09-15T19:54:30.487Z,101138.09
2022-09-15T19:56:57.504Z,101098.66
2022-09-15T19:59:28.751Z,101120.28
2022-09-15T20:01:57.532Z,101142.06
2022-09-15T20:07:08.151Z,101134.38
2022-09-15T20:09:34.675Z,101158.16
2022-09-15T20:12:04.107Z,101151.94
2022-09-15T20:14:31.468Z,101155.03
2022-09-15T20:17:00.971Z,101135.19
2022-09-15T20:19:28.667Z,101137.66
2022-09-15T20:21:55.400Z,101137.19
2022-09-15T20:24:22.348Z,101145.75
2022-09-15T20:26:49.226Z,101147.41
2022-09-15T20:29:16.315Z,101105.22
2022-09-15T20:31:43.508Z,101140.06
2022-09-15T20:34:10.151Z,101151.19
2022-09-15T20:36:38.862Z,101151.03
2022-09-15T20:39:09.367Z,101137.69
2022-09-15T20:41:36.298Z,101095.41
2022-09-15T20:44:03.103Z,101147.41
2022-09-15T20:46:31.245Z,101148.63
2022-09-15T20:48:57.753Z,101147.66
2022-09-15T20:51:26.903Z,101148.38
2022-09-15T20:53:55.751Z,101151.28
2022-09-15T20:56:25.417Z,101151.69
2022-09-15T20:58:54.147Z,101154.13
2022-09-15T21:01:28.694Z,101140.44
2022-09-15T21:03:55.538Z,101156.16
2022-09-15T21:06:24.395Z,101155.47
2022-09-15T21:08:51.375Z,101144.72
2022-09-15T21:11:19.736Z,101156.81
2022-09-15T21:13:47.570Z,101160.34
2022-09-15T21:16:20.578Z,101155.88
2022-09-15T21:18:48.607Z,101166.59
2022-09-15T21:21:24.753Z,101154.66
2022-09-15T21:23:56.431Z,101161.22
2022-09-15T21:26:25.724Z,101146.94
2022-09-15T21:28:53.361Z,101159.75
2022-09-15T21:31:22.590Z,101164.97
2022-09-15T21:33:49.727Z,101164.59
2022-09-15T21:36:24.872Z,101166.44
2022-09-15T21:38:53.271Z,101160.50
2022-09-15T21:41:22.279Z,101130.09
2022-09-15T21:43:49.819Z,101176.50
2022-09-15T21:46:19.920Z,101175.53
2022-09-15T21:48:47.605Z,101177.59
2022-09-15T21:51:15.921Z,101175.41
2022-09-15T21:53:43.138Z,101179.44
2022-09-15T21:56:13.319Z,101183.78
2022-09-15T21:58:43.177Z,101177.97
2022-09-15T22:01:19.139Z,101184.38
2022-09-15T22:03:51.503Z,101171.41
2022-09-15T22:06:19.366Z,101155.69
2022-09-15T22:08:46.712Z,101176.06
2022-09-15T22:11:13.707Z,101175.53
2022-09-15T22:13:42.942Z,101170.72
2022-09-15T22:16:19.034Z,101172.16
2022-09-15T22:18:45.612Z,101180.88
2022-09-15T22:21:27.141Z,101186.53
2022-09-15T22:23:56.304Z,101176.97
2022-09-15T22:26:27.371Z,101185.38
2022-09-15T22:28:54.648Z,101173.72
2022-09-15T22:31:22.875Z,101168.13
2022-09-15T22:33:49.828Z,101164.28
2022-09-15T22:36:18.963Z,101156.66
2022-09-15T22:38:46.462Z,101151.06
2022-09-15T22:41:15.540Z,101153.72
2022-09-15T22:43:43.131Z,101150.94
2022-09-15T22:46:09.939Z,101131.19
2022-09-15T22:48:40.938Z,101148.28
2022-09-15T22:51:10.755Z,101137.72
2022-09-15T22:53:37.247Z,101133.03
2022-09-15T22:56:10.369Z,101142.22
2022-09-15T22:58:38.000Z,101135.31
2022-09-15T23:01:07.055Z,101141.03
2022-09-15T23:03:33.597Z,101129.88
2022-09-15T23:06:00.728Z,101139.94
2022-09-15T23:08:27.470Z,101131.34
2022-09-15T23:11:01.690Z,101143.19
2022-09-15T23:13:28.153Z,101143.09
2022-09-15T23:15:54.654Z,101131.94
2022-09-15T23:18:21.300Z,101137.88
2022-09-15T23:20:47.738Z,101144.06
2022-09-15T23:23:14.232Z,101144.41
2022-09-15T23:25:40.790Z,101139.44
2022-09-15T23:28:07.302Z,101135.19
2022-09-15T23:30:34.404Z,101150.22
2022-09-15T23:33:02.432Z,101138.59
2022-09-15T23:35:28.992Z,101151.06
2022-09-15T23:37:55.447Z,101153.00
2022-09-15T23:40:22.178Z,101164.16
2022-09-15T23:42:48.742Z,101148.16
2022-09-15T23:45:15.704Z,101155.19
2022-09-15T23:47:42.263Z,101147.94
2022-09-15T23:50:10.012Z,101152.91
2022-09-15T23:52:36.839Z,101147.94
2022-09-15T23:55:03.955Z,101146.72
2022-09-15T23:57:30.512Z,101138.00
2022-09-15T23:59:56.939Z,101134.03
